Registro, Brazil
Current Conditions -  °F | °C
As of 1:00 AM on Tuesday 21 Oct 2014 (Local Time) from SBSP Reporting Station
Overcast Overcast  
Wind Chill: 61°   Ceiling: 1800
Heat Index: 61°   Visibility: 6mi
Dew Point: 55°   Wind: 10mph
Humidity: 82%   Direction: 170°S
Pressure: 30.15"   Gusts: NA
Location:  24.49°S, 47.84°W
Report Text: SBSP 210400Z 17009KT 9999 FEW008 BKN018 OVC022 16/13 Q1021
Loading
Personal Weather Stations






























Interactive Weather Map
Tropical Storm Tracking
New forecast layout! Learn more

10-Day Weather Forecast

Advertisements
Track Severe Weather on mobile